sensor_id;sensor_type;location;lat;lon;timestamp;temperature;humidity
52167;DHT22;38149;52.666;6.428;2022-07-31T02:25:26;19.40;99.90
52167;DHT22;38149;52.666;6.428;2022-07-31T02:27:55;19.30;99.90
52167;DHT22;38149;52.666;6.428;2022-07-31T02:30:22;19.50;99.90
52167;DHT22;38149;52.666;6.428;2022-07-31T02:32:51;19.40;99.90
52167;DHT22;38149;52.666;6.428;2022-07-31T02:35:17;19.20;99.90
52167;DHT22;38149;52.666;6.428;2022-07-31T02:37:44;18.90;99.90
52167;DHT22;38149;52.666;6.428;2022-07-31T04:47:15;19.60;99.90
52167;DHT22;38149;52.666;6.428;2022-07-31T04:49:54;19.30;99.90
52167;DHT22;38149;52.666;6.428;2022-07-31T04:52:21;19.10;99.90
52167;DHT22;38149;52.666;6.428;2022-07-31T04:54:47;19.20;99.90
52167;DHT22;38149;52.666;6.428;2022-07-31T04:57:12;19.00;99.90
52167;DHT22;38149;52.666;6.428;2022-07-31T04:59:38;18.90;99.90
52167;DHT22;38149;52.666;6.428;2022-07-31T05:04:31;18.80;99.90
52167;DHT22;38149;52.666;6.428;2022-07-31T05:06:56;18.10;99.90
52167;DHT22;38149;52.666;6.428;2022-07-31T05:09:23;19.00;99.90
52167;DHT22;38149;52.666;6.428;2022-07-31T05:14:18;19.00;99.90
52167;DHT22;38149;52.666;6.428;2022-07-31T05:16:45;19.20;99.90
52167;DHT22;38149;52.666;6.428;2022-07-31T05:19:12;19.10;99.90
52167;DHT22;38149;52.666;6.428;2022-07-31T05:21:38;19.20;99.90
52167;DHT22;38149;52.666;6.428;2022-07-31T05:24:04;19.40;99.90
52167;DHT22;38149;52.666;6.428;2022-07-31T05:26:30;19.00;99.90
52167;DHT22;38149;52.666;6.428;2022-07-31T05:31:24;19.10;99.90
52167;DHT22;38149;52.666;6.428;2022-07-31T05:33:50;19.50;99.90
52167;DHT22;38149;52.666;6.428;2022-07-31T05:36:17;19.00;99.90
52167;DHT22;38149;52.666;6.428;2022-07-31T05:38:43;19.40;99.90
52167;DHT22;38149;52.666;6.428;2022-07-31T05:41:09;19.10;99.90
52167;DHT22;38149;52.666;6.428;2022-07-31T05:43:36;19.20;99.90
52167;DHT22;38149;52.666;6.428;2022-07-31T05:46:03;19.40;99.90
52167;DHT22;38149;52.666;6.428;2022-07-31T05:48:30;19.00;99.90
52167;DHT22;38149;52.666;6.428;2022-07-31T05:50:56;19.00;99.90
52167;DHT22;38149;52.666;6.428;2022-07-31T05:53:21;19.40;99.90
52167;DHT22;38149;52.666;6.428;2022-07-31T05:55:49;19.80;99.90
52167;DHT22;38149;52.666;6.428;2022-07-31T05:58:16;19.20;99.90
52167;DHT22;38149;52.666;6.428;2022-07-31T06:03:12;19.10;99.90
52167;DHT22;38149;52.666;6.428;2022-07-31T06:05:39;19.30;99.90
52167;DHT22;38149;52.666;6.428;2022-07-31T06:08:06;19.30;99.90
52167;DHT22;38149;52.666;6.428;2022-07-31T06:10:34;19.30;99.90
52167;DHT22;38149;52.666;6.428;2022-07-31T06:13:02;19.20;99.90
52167;DHT22;38149;52.666;6.428;2022-07-31T06:15:29;19.30;99.90
52167;DHT22;38149;52.666;6.428;2022-07-31T06:17:55;19.20;99.90
52167;DHT22;38149;52.666;6.428;2022-07-31T06:20:20;19.20;99.90
52167;DHT22;38149;52.666;6.428;2022-07-31T06:22:46;19.40;99.90
52167;DHT22;38149;52.666;6.428;2022-07-31T06:25:12;19.40;99.90
52167;DHT22;38149;52.666;6.428;2022-07-31T06:27:38;19.20;99.90
52167;DHT22;38149;52.666;6.428;2022-07-31T06:32:32;19.30;99.90
52167;DHT22;38149;52.666;6.428;2022-07-31T06:34:58;19.30;99.90
52167;DHT22;38149;52.666;6.428;2022-07-31T06:37:24;19.20;99.90
52167;DHT22;38149;52.666;6.428;2022-07-31T06:39:51;19.20;99.90
52167;DHT22;38149;52.666;6.428;2022-07-31T06:42:18;19.60;99.90
52167;DHT22;38149;52.666;6.428;2022-07-31T06:44:45;19.40;99.90
52167;DHT22;38149;52.666;6.428;2022-07-31T06:47:11;19.40;99.90
52167;DHT22;38149;52.666;6.428;2022-07-31T06:49:37;19.30;99.90
52167;DHT22;38149;52.666;6.428;2022-07-31T06:56:55;19.60;99.90
52167;DHT22;38149;52.666;6.428;2022-07-31T06:59:21;19.60;99.90
52167;DHT22;38149;52.666;6.428;2022-07-31T07:01:47;19.60;99.90
52167;DHT22;38149;52.666;6.428;2022-07-31T07:06:39;19.50;99.90
52167;DHT22;38149;52.666;6.428;2022-07-31T07:09:04;19.90;99.90
52167;DHT22;38149;52.666;6.428;2022-07-31T07:11:30;19.70;99.90
52167;DHT22;38149;52.666;6.428;2022-07-31T07:13:56;19.90;99.90
52167;DHT22;38149;52.666;6.428;2022-07-31T07:16:22;19.80;99.90
52167;DHT22;38149;52.666;6.428;2022-07-31T07:18:47;20.10;99.90
52167;DHT22;38149;52.666;6.428;2022-07-31T07:21:13;19.80;99.90
52167;DHT22;38149;52.666;6.428;2022-07-31T07:26:06;19.90;99.90
52167;DHT22;38149;52.666;6.428;2022-07-31T07:28:32;19.80;99.90
52167;DHT22;38149;52.666;6.428;2022-07-31T07:30:59;19.90;99.90
52167;DHT22;38149;52.666;6.428;2022-07-31T07:33:25;19.80;99.90
52167;DHT22;38149;52.666;6.428;2022-07-31T07:35:50;19.90;99.90
52167;DHT22;38149;52.666;6.428;2022-07-31T07:38:16;19.90;99.90
52167;DHT22;38149;52.666;6.428;2022-07-31T07:40:42;19.90;99.90
52167;DHT22;38149;52.666;6.428;2022-07-31T07:43:08;19.90;99.90
52167;DHT22;38149;52.666;6.428;2022-07-31T07:45:34;19.90;99.90
52167;DHT22;38149;52.666;6.428;2022-07-31T07:48:00;20.00;99.90
52167;DHT22;38149;52.666;6.428;2022-07-31T07:50:26;19.90;99.90
52167;DHT22;38149;52.666;6.428;2022-07-31T07:52:51;20.00;99.90
52167;DHT22;38149;52.666;6.428;2022-07-31T07:55:17;20.00;99.90
52167;DHT22;38149;52.666;6.428;2022-07-31T07:57:44;20.00;99.90
52167;DHT22;38149;52.666;6.428;2022-07-31T08:00:11;20.10;99.90
52167;DHT22;38149;52.666;6.428;2022-07-31T08:02:38;20.10;99.90
52167;DHT22;38149;52.666;6.428;2022-07-31T08:07:34;20.20;99.90
52167;DHT22;38149;52.666;6.428;2022-07-31T08:10:03;20.20;99.90
52167;DHT22;38149;52.666;6.428;2022-07-31T08:12:30;20.20;99.90
52167;DHT22;38149;52.666;6.428;2022-07-31T08:14:56;20.30;99.90
52167;DHT22;38149;52.666;6.428;2022-07-31T08:17:22;20.30;99.90
52167;DHT22;38149;52.666;6.428;2022-07-31T08:19:48;20.30;99.90
52167;DHT22;38149;52.666;6.428;2022-07-31T08:22:14;20.40;99.90
52167;DHT22;38149;52.666;6.428;2022-07-31T08:24:40;20.40;99.90
52167;DHT22;38149;52.666;6.428;2022-07-31T08:27:06;21.00;99.90
52167;DHT22;38149;52.666;6.428;2022-07-31T08:29:51;20.10;99.90
52167;DHT22;38149;52.666;6.428;2022-07-31T08:32:17;21.60;99.90
52167;DHT22;38149;52.666;6.428;2022-07-31T08:34:44;20.60;99.90
52167;DHT22;38149;52.666;6.428;2022-07-31T08:37:09;20.60;99.90
52167;DHT22;38149;52.666;6.428;2022-07-31T08:39:36;20.70;99.90
52167;DHT22;38149;52.666;6.428;2022-07-31T08:42:08;20.70;99.90
52167;DHT22;38149;52.666;6.428;2022-07-31T08:44:42;21.40;99.90
52167;DHT22;38149;52.666;6.428;2022-07-31T08:47:10;20.80;99.90
52167;DHT22;38149;52.666;6.428;2022-07-31T08:49:48;20.90;99.90
52167;DHT22;38149;52.666;6.428;2022-07-31T08:52:19;20.90;99.90
52167;DHT22;38149;52.666;6.428;2022-07-31T08:54:50;21.00;99.90
52167;DHT22;38149;52.666;6.428;2022-07-31T08:57:17;21.00;99.90
52167;DHT22;38149;52.666;6.428;2022-07-31T08:59:43;21.00;99.90
52167;DHT22;38149;52.666;6.428;2022-07-31T09:02:10;21.00;99.90
52167;DHT22;38149;52.666;6.428;2022-07-31T09:04:37;20.90;99.90
52167;DHT22;38149;52.666;6.428;2022-07-31T09:07:04;21.00;99.90
52167;DHT22;38149;52.666;6.428;2022-07-31T09:09:30;21.00;99.90
52167;DHT22;38149;52.666;6.428;2022-07-31T09:11:57;21.00;99.90
52167;DHT22;38149;52.666;6.428;2022-07-31T09:14:31;21.00;99.90
52167;DHT22;38149;52.666;6.428;2022-07-31T09:17:00;21.00;99.90
52167;DHT22;38149;52.666;6.428;2022-07-31T09:19:42;21.00;99.90
52167;DHT22;38149;52.666;6.428;2022-07-31T09:22:27;21.10;99.90
52167;DHT22;38149;52.666;6.428;2022-07-31T09:25:05;21.10;99.90
52167;DHT22;38149;52.666;6.428;2022-07-31T09:27:37;21.10;99.90
52167;DHT22;38149;52.666;6.428;2022-07-31T09:30:03;21.10;99.90
52167;DHT22;38149;52.666;6.428;2022-07-31T09:32:30;21.20;99.90
52167;DHT22;38149;52.666;6.428;2022-07-31T09:35:09;21.10;99.90
52167;DHT22;38149;52.666;6.428;2022-07-31T09:37:35;21.20;99.90
52167;DHT22;38149;52.666;6.428;2022-07-31T09:40:02;21.20;99.90
52167;DHT22;38149;52.666;6.428;2022-07-31T09:42:41;21.20;99.90
52167;DHT22;38149;52.666;6.428;2022-07-31T09:45:20;21.20;99.90
52167;DHT22;38149;52.666;6.428;2022-07-31T09:47:52;21.30;99.90
52167;DHT22;38149;52.666;6.428;2022-07-31T09:50:27;21.30;99.90
52167;DHT22;38149;52.666;6.428;2022-07-31T09:52:58;21.30;99.90
52167;DHT22;38149;52.666;6.428;2022-07-31T09:55:25;21.40;99.90
52167;DHT22;38149;52.666;6.428;2022-07-31T09:57:56;21.40;99.90
52167;DHT22;38149;52.666;6.428;2022-07-31T10:00:25;21.40;99.90
52167;DHT22;38149;52.666;6.428;2022-07-31T10:02:53;21.40;99.90
52167;DHT22;38149;52.666;6.428;2022-07-31T10:05:22;21.40;99.90
52167;DHT22;38149;52.666;6.428;2022-07-31T10:07:50;21.40;99.90
52167;DHT22;38149;52.666;6.428;2022-07-31T10:10:16;21.40;99.90
52167;DHT22;38149;52.666;6.428;2022-07-31T10:12:47;21.40;99.90
52167;DHT22;38149;52.666;6.428;2022-07-31T10:15:16;21.40;99.90
52167;DHT22;38149;52.666;6.428;2022-07-31T10:17:46;21.40;99.90
52167;DHT22;38149;52.666;6.428;2022-07-31T10:20:17;21.20;99.90
52167;DHT22;38149;52.666;6.428;2022-07-31T10:22:48;21.30;99.90
52167;DHT22;38149;52.666;6.428;2022-07-31T10:25:19;21.30;99.90
52167;DHT22;38149;52.666;6.428;2022-07-31T10:30:14;21.40;99.90
52167;DHT22;38149;52.666;6.428;2022-07-31T10:32:40;21.40;99.90
52167;DHT22;38149;52.666;6.428;2022-07-31T10:35:07;21.40;99.90
52167;DHT22;38149;52.666;6.428;2022-07-31T10:40:56;21.40;99.90
52167;DHT22;38149;52.666;6.428;2022-07-31T10:43:51;21.40;99.90
52167;DHT22;38149;52.666;6.428;2022-07-31T10:46:35;21.40;99.90
52167;DHT22;38149;52.666;6.428;2022-07-31T10:49:01;21.40;99.90
52167;DHT22;38149;52.666;6.428;2022-07-31T10:51:28;21.40;99.90
52167;DHT22;38149;52.666;6.428;2022-07-31T10:54:02;21.40;99.90
52167;DHT22;38149;52.666;6.428;2022-07-31T10:56:42;21.50;99.90
52167;DHT22;38149;52.666;6.428;2022-07-31T10:59:09;21.50;99.90
52167;DHT22;38149;52.666;6.428;2022-07-31T11:01:49;21.50;99.90
52167;DHT22;38149;52.666;6.428;2022-07-31T11:04:30;21.50;99.90
52167;DHT22;38149;52.666;6.428;2022-07-31T11:06:57;21.50;99.90
52167;DHT22;38149;52.666;6.428;2022-07-31T11:09:25;21.50;99.90
52167;DHT22;38149;52.666;6.428;2022-07-31T11:11:52;21.40;99.90
52167;DHT22;38149;52.666;6.428;2022-07-31T11:14:30;21.40;99.90
52167;DHT22;38149;52.666;6.428;2022-07-31T11:16:57;21.40;99.90
52167;DHT22;38149;52.666;6.428;2022-07-31T11:19:23;21.30;99.90
52167;DHT22;38149;52.666;6.428;2022-07-31T11:21:49;21.20;99.90
52167;DHT22;38149;52.666;6.428;2022-07-31T11:24:20;21.20;99.90
52167;DHT22;38149;52.666;6.428;2022-07-31T11:26:55;21.10;99.90
52167;DHT22;38149;52.666;6.428;2022-07-31T11:29:26;21.10;99.90
52167;DHT22;38149;52.666;6.428;2022-07-31T11:31:59;21.10;99.90
52167;DHT22;38149;52.666;6.428;2022-07-31T11:34:54;21.10;99.90
52167;DHT22;38149;52.666;6.428;2022-07-31T11:37:23;21.00;99.90
52167;DHT22;38149;52.666;6.428;2022-07-31T11:42:21;21.00;99.90
52167;DHT22;38149;52.666;6.428;2022-07-31T11:44:48;20.90;99.90
52167;DHT22;38149;52.666;6.428;2022-07-31T11:47:14;20.90;99.90
52167;DHT22;38149;52.666;6.428;2022-07-31T11:49:40;20.90;99.90
52167;DHT22;38149;52.666;6.428;2022-07-31T11:52:08;20.90;99.90
52167;DHT22;38149;52.666;6.428;2022-07-31T11:54:37;20.90;99.90
52167;DHT22;38149;52.666;6.428;2022-07-31T11:57:03;20.90;99.90
52167;DHT22;38149;52.666;6.428;2022-07-31T11:59:37;20.90;99.90
52167;DHT22;38149;52.666;6.428;2022-07-31T12:02:11;21.00;99.90
52167;DHT22;38149;52.666;6.428;2022-07-31T12:04:38;21.00;99.90
52167;DHT22;38149;52.666;6.428;2022-07-31T12:07:07;20.90;99.90
52167;DHT22;38149;52.666;6.428;2022-07-31T12:09:34;21.00;99.90
52167;DHT22;38149;52.666;6.428;2022-07-31T12:12:02;20.90;99.90
52167;DHT22;38149;52.666;6.428;2022-07-31T12:14:34;20.90;99.90
52167;DHT22;38149;52.666;6.428;2022-07-31T12:17:06;20.90;99.90
52167;DHT22;38149;52.666;6.428;2022-07-31T12:19:43;20.90;99.90
52167;DHT22;38149;52.666;6.428;2022-07-31T12:22:17;20.90;99.90
52167;DHT22;38149;52.666;6.428;2022-07-31T12:24:44;20.90;99.90
52167;DHT22;38149;52.666;6.428;2022-07-31T12:27:15;20.80;99.90
52167;DHT22;38149;52.666;6.428;2022-07-31T12:29:43;20.80;99.90
52167;DHT22;38149;52.666;6.428;2022-07-31T12:32:09;20.70;99.90
52167;DHT22;38149;52.666;6.428;2022-07-31T12:34:37;20.70;99.90
52167;DHT22;38149;52.666;6.428;2022-07-31T12:37:09;20.70;99.90
52167;DHT22;38149;52.666;6.428;2022-07-31T12:39:54;20.70;99.90
52167;DHT22;38149;52.666;6.428;2022-07-31T12:42:29;20.80;99.90
52167;DHT22;38149;52.666;6.428;2022-07-31T12:44:59;20.70;99.90
52167;DHT22;38149;52.666;6.428;2022-07-31T12:47:31;20.70;99.90
52167;DHT22;38149;52.666;6.428;2022-07-31T12:49:59;20.70;99.90
52167;DHT22;38149;52.666;6.428;2022-07-31T12:52:30;20.70;99.90
52167;DHT22;38149;52.666;6.428;2022-07-31T12:55:01;20.70;99.90
52167;DHT22;38149;52.666;6.428;2022-07-31T12:57:29;20.60;99.90
52167;DHT22;38149;52.666;6.428;2022-07-31T12:59:55;20.60;99.90
52167;DHT22;38149;52.666;6.428;2022-07-31T13:02:21;20.60;99.90
52167;DHT22;38149;52.666;6.428;2022-07-31T13:04:47;20.50;99.90
52167;DHT22;38149;52.666;6.428;2022-07-31T13:07:13;20.60;99.90
52167;DHT22;38149;52.666;6.428;2022-07-31T13:09:41;20.60;99.90
52167;DHT22;38149;52.666;6.428;2022-07-31T13:12:07;20.60;99.90
52167;DHT22;38149;52.666;6.428;2022-07-31T13:14:34;20.60;99.90
52167;DHT22;38149;52.666;6.428;2022-07-31T13:16:59;20.70;99.90
52167;DHT22;38149;52.666;6.428;2022-07-31T13:19:25;20.60;99.90
52167;DHT22;38149;52.666;6.428;2022-07-31T13:21:51;20.60;99.90
52167;DHT22;38149;52.666;6.428;2022-07-31T13:24:18;20.60;99.90
52167;DHT22;38149;52.666;6.428;2022-07-31T13:26:45;20.60;99.90
52167;DHT22;38149;52.666;6.428;2022-07-31T13:29:11;20.60;99.90
52167;DHT22;38149;52.666;6.428;2022-07-31T13:31:37;20.60;99.90
52167;DHT22;38149;52.666;6.428;2022-07-31T13:34:03;20.60;99.90
52167;DHT22;38149;52.666;6.428;2022-07-31T13:36:29;20.60;99.90
52167;DHT22;38149;52.666;6.428;2022-07-31T13:38:55;20.60;99.90
52167;DHT22;38149;52.666;6.428;2022-07-31T13:41:21;20.60;99.90
52167;DHT22;38149;52.666;6.428;2022-07-31T13:43:53;20.50;99.90
52167;DHT22;38149;52.666;6.428;2022-07-31T13:46:20;20.60;99.90
52167;DHT22;38149;52.666;6.428;2022-07-31T13:48:47;20.60;99.90
52167;DHT22;38149;52.666;6.428;2022-07-31T13:51:15;20.50;99.90
52167;DHT22;38149;52.666;6.428;2022-07-31T13:53:41;20.50;99.90
52167;DHT22;38149;52.666;6.428;2022-07-31T13:56:06;20.60;99.90
52167;DHT22;38149;52.666;6.428;2022-07-31T13:58:36;20.50;99.90
52167;DHT22;38149;52.666;6.428;2022-07-31T14:01:03;20.60;99.90
52167;DHT22;38149;52.666;6.428;2022-07-31T14:03:29;20.50;99.90
52167;DHT22;38149;52.666;6.428;2022-07-31T14:05:55;20.60;99.90
52167;DHT22;38149;52.666;6.428;2022-07-31T14:08:21;20.50;99.90
52167;DHT22;38149;52.666;6.428;2022-07-31T14:10:47;20.60;99.90
52167;DHT22;38149;52.666;6.428;2022-07-31T14:13:14;20.60;99.90
52167;DHT22;38149;52.666;6.428;2022-07-31T14:15:40;20.60;99.90
52167;DHT22;38149;52.666;6.428;2022-07-31T14:18:06;20.60;99.90
52167;DHT22;38149;52.666;6.428;2022-07-31T14:20:33;20.60;99.90
52167;DHT22;38149;52.666;6.428;2022-07-31T14:23:00;20.60;99.90
52167;DHT22;38149;52.666;6.428;2022-07-31T14:25:31;20.60;99.90
52167;DHT22;38149;52.666;6.428;2022-07-31T14:27:58;20.60;99.90
52167;DHT22;38149;52.666;6.428;2022-07-31T14:30:24;20.60;99.90
52167;DHT22;38149;52.666;6.428;2022-07-31T14:32:51;20.60;99.90
52167;DHT22;38149;52.666;6.428;2022-07-31T14:35:16;20.60;99.90
52167;DHT22;38149;52.666;6.428;2022-07-31T14:37:42;20.60;99.90
52167;DHT22;38149;52.666;6.428;2022-07-31T14:40:08;20.60;99.90
52167;DHT22;38149;52.666;6.428;2022-07-31T14:42:35;20.60;99.90
52167;DHT22;38149;52.666;6.428;2022-07-31T14:45:04;20.60;99.90
52167;DHT22;38149;52.666;6.428;2022-07-31T14:47:33;20.60;99.90
52167;DHT22;38149;52.666;6.428;2022-07-31T14:49:59;20.60;99.90
52167;DHT22;38149;52.666;6.428;2022-07-31T14:52:26;20.60;99.90
52167;DHT22;38149;52.666;6.428;2022-07-31T14:54:52;20.70;99.90
52167;DHT22;38149;52.666;6.428;2022-07-31T14:57:18;20.70;99.90
52167;DHT22;38149;52.666;6.428;2022-07-31T14:59:44;20.70;99.90
52167;DHT22;38149;52.666;6.428;2022-07-31T15:02:10;20.80;99.90
52167;DHT22;38149;52.666;6.428;2022-07-31T15:04:36;20.80;99.90
52167;DHT22;38149;52.666;6.428;2022-07-31T15:38:51;21.10;99.90
52167;DHT22;38149;52.666;6.428;2022-07-31T15:41:18;21.10;99.90
52167;DHT22;38149;52.666;6.428;2022-07-31T15:43:43;21.00;99.90
52167;DHT22;38149;52.666;6.428;2022-07-31T15:46:09;20.90;99.90
52167;DHT22;38149;52.666;6.428;2022-07-31T15:48:36;21.00;99.90
52167;DHT22;38149;52.666;6.428;2022-07-31T15:51:04;21.00;99.90
52167;DHT22;38149;52.666;6.428;2022-07-31T15:53:30;21.00;99.90
52167;DHT22;38149;52.666;6.428;2022-07-31T15:55:56;20.90;99.90
52167;DHT22;38149;52.666;6.428;2022-07-31T15:58:21;20.90;99.90
52167;DHT22;38149;52.666;6.428;2022-07-31T16:00:47;20.90;99.90
52167;DHT22;38149;52.666;6.428;2022-07-31T16:03:13;20.70;99.90
52167;DHT22;38149;52.666;6.428;2022-07-31T16:05:39;20.90;99.90
52167;DHT22;38149;52.666;6.428;2022-07-31T16:08:05;20.90;99.90
52167;DHT22;38149;52.666;6.428;2022-07-31T16:10:32;20.90;99.90
52167;DHT22;38149;52.666;6.428;2022-07-31T16:12:58;20.90;99.90
52167;DHT22;38149;52.666;6.428;2022-07-31T16:15:24;20.80;99.90
52167;DHT22;38149;52.666;6.428;2022-07-31T16:17:50;20.80;99.90
52167;DHT22;38149;52.666;6.428;2022-07-31T16:20:18;20.80;99.90
52167;DHT22;38149;52.666;6.428;2022-07-31T16:22:49;20.80;99.90
52167;DHT22;38149;52.666;6.428;2022-07-31T16:25:19;20.80;99.90
52167;DHT22;38149;52.666;6.428;2022-07-31T16:27:46;20.80;99.90
52167;DHT22;38149;52.666;6.428;2022-07-31T16:30:13;20.70;99.90
52167;DHT22;38149;52.666;6.428;2022-07-31T16:32:40;20.70;99.90
52167;DHT22;38149;52.666;6.428;2022-07-31T16:35:07;20.70;99.90
52167;DHT22;38149;52.666;6.428;2022-07-31T16:37:33;20.70;99.90
52167;DHT22;38149;52.666;6.428;2022-07-31T16:39:59;20.80;99.90
52167;DHT22;38149;52.666;6.428;2022-07-31T16:42:26;20.80;99.90
52167;DHT22;38149;52.666;6.428;2022-07-31T16:47:20;21.00;99.90
52167;DHT22;38149;52.666;6.428;2022-07-31T16:49:47;21.00;99.90
52167;DHT22;38149;52.666;6.428;2022-07-31T16:52:13;21.00;99.90
52167;DHT22;38149;52.666;6.428;2022-07-31T16:54:40;21.00;99.90
52167;DHT22;38149;52.666;6.428;2022-07-31T16:57:06;21.00;99.90
52167;DHT22;38149;52.666;6.428;2022-07-31T17:02:01;21.00;99.90
52167;DHT22;38149;52.666;6.428;2022-07-31T17:04:28;21.00;99.90
52167;DHT22;38149;52.666;6.428;2022-07-31T17:06:54;20.90;99.90
52167;DHT22;38149;52.666;6.428;2022-07-31T17:09:20;20.80;99.90
52167;DHT22;38149;52.666;6.428;2022-07-31T17:21:42;20.80;99.90
52167;DHT22;38149;52.666;6.428;2022-07-31T17:24:08;21.00;99.90
52167;DHT22;38149;52.666;6.428;2022-07-31T17:26:34;20.60;99.90
52167;DHT22;38149;52.666;6.428;2022-07-31T17:29:00;20.80;99.90
52167;DHT22;38149;52.666;6.428;2022-07-31T17:31:26;20.80;99.90
52167;DHT22;38149;52.666;6.428;2022-07-31T17:33:52;20.80;99.90
52167;DHT22;38149;52.666;6.428;2022-07-31T17:36:17;20.90;99.90
52167;DHT22;38149;52.666;6.428;2022-07-31T17:38:43;21.40;99.90
52167;DHT22;38149;52.666;6.428;2022-07-31T17:41:11;20.90;99.90
52167;DHT22;38149;52.666;6.428;2022-07-31T17:43:37;20.90;99.90
52167;DHT22;38149;52.666;6.428;2022-07-31T17:46:03;20.90;99.90
52167;DHT22;38149;52.666;6.428;2022-07-31T17:50:56;20.90;99.90
52167;DHT22;38149;52.666;6.428;2022-07-31T17:53:22;20.70;99.90
52167;DHT22;38149;52.666;6.428;2022-07-31T17:55:48;21.00;99.90
52167;DHT22;38149;52.666;6.428;2022-07-31T17:58:14;20.90;99.90
52167;DHT22;38149;52.666;6.428;2022-07-31T18:00:40;20.70;99.90
52167;DHT22;38149;52.666;6.428;2022-07-31T18:03:06;20.90;99.90
52167;DHT22;38149;52.666;6.428;2022-07-31T18:07:59;20.80;99.90
52167;DHT22;38149;52.666;6.428;2022-07-31T18:10:25;20.50;99.90
52167;DHT22;38149;52.666;6.428;2022-07-31T18:12:50;20.80;99.90
52167;DHT22;38149;52.666;6.428;2022-07-31T18:15:18;20.60;99.90
52167;DHT22;38149;52.666;6.428;2022-07-31T18:27:37;20.60;99.90
52167;DHT22;38149;52.666;6.428;2022-07-31T18:57:03;20.70;99.90
52167;DHT22;38149;52.666;6.428;2022-07-31T18:59:29;20.80;99.90
52167;DHT22;38149;52.666;6.428;2022-07-31T19:01:55;20.60;99.90
52167;DHT22;38149;52.666;6.428;2022-07-31T19:04:21;20.70;99.90
52167;DHT22;38149;52.666;6.428;2022-07-31T19:06:48;20.60;99.90
52167;DHT22;38149;52.666;6.428;2022-07-31T19:09:14;20.70;99.90
52167;DHT22;38149;52.666;6.428;2022-07-31T19:11:40;20.60;99.90
52167;DHT22;38149;52.666;6.428;2022-07-31T19:14:06;20.60;99.90
52167;DHT22;38149;52.666;6.428;2022-07-31T19:16:32;20.60;99.90
52167;DHT22;38149;52.666;6.428;2022-07-31T19:18:58;20.40;99.90
52167;DHT22;38149;52.666;6.428;2022-07-31T19:21:23;20.50;99.90
52167;DHT22;38149;52.666;6.428;2022-07-31T19:23:49;20.50;99.90
52167;DHT22;38149;52.666;6.428;2022-07-31T19:26:15;20.50;99.90
52167;DHT22;38149;52.666;6.428;2022-07-31T19:28:41;20.40;99.90
52167;DHT22;38149;52.666;6.428;2022-07-31T19:31:08;20.40;99.90
52167;DHT22;38149;52.666;6.428;2022-07-31T19:33:34;20.50;99.90
52167;DHT22;38149;52.666;6.428;2022-07-31T19:36:02;20.40;99.90
52167;DHT22;38149;52.666;6.428;2022-07-31T19:38:29;20.40;99.90
52167;DHT22;38149;52.666;6.428;2022-07-31T19:40:56;20.10;99.90
52167;DHT22;38149;52.666;6.428;2022-07-31T19:43:22;20.40;99.90
52167;DHT22;38149;52.666;6.428;2022-07-31T19:45:47;20.40;99.90
52167;DHT22;38149;52.666;6.428;2022-07-31T19:48:13;20.40;99.90
52167;DHT22;38149;52.666;6.428;2022-07-31T19:50:39;20.40;99.90
52167;DHT22;38149;52.666;6.428;2022-07-31T19:53:04;20.40;99.90
52167;DHT22;38149;52.666;6.428;2022-07-31T19:55:30;20.50;99.90
52167;DHT22;38149;52.666;6.428;2022-07-31T19:57:56;20.30;99.90
52167;DHT22;38149;52.666;6.428;2022-07-31T20:00:22;20.40;99.90
52167;DHT22;38149;52.666;6.428;2022-07-31T20:02:48;20.40;99.90
52167;DHT22;38149;52.666;6.428;2022-07-31T20:05:14;20.50;99.90
52167;DHT22;38149;52.666;6.428;2022-07-31T20:10:08;20.40;99.90
52167;DHT22;38149;52.666;6.428;2022-07-31T20:17:31;20.30;99.90
52167;DHT22;38149;52.666;6.428;2022-07-31T20:19:57;20.30;99.90
52167;DHT22;38149;52.666;6.428;2022-07-31T20:22:23;20.30;99.90
52167;DHT22;38149;52.666;6.428;2022-07-31T20:29:44;20.20;99.90
52167;DHT22;38149;52.666;6.428;2022-07-31T20:41:59;20.20;99.90
52167;DHT22;38149;52.666;6.428;2022-07-31T20:51:50;20.00;99.90
52167;DHT22;38149;52.666;6.428;2022-07-31T20:54:19;20.10;99.90
52167;DHT22;38149;52.666;6.428;2022-07-31T20:56:45;20.10;99.90
52167;DHT22;38149;52.666;6.428;2022-07-31T20:59:12;19.90;99.90
52167;DHT22;38149;52.666;6.428;2022-07-31T21:01:39;20.00;99.90
52167;DHT22;38149;52.666;6.428;2022-07-31T21:04:05;20.00;99.90
52167;DHT22;38149;52.666;6.428;2022-07-31T21:06:32;20.00;99.90
52167;DHT22;38149;52.666;6.428;2022-07-31T21:28:27;19.80;99.90
52167;DHT22;38149;52.666;6.428;2022-07-31T21:30:53;19.80;99.90
52167;DHT22;38149;52.666;6.428;2022-07-31T21:33:20;19.90;99.90
52167;DHT22;38149;52.666;6.428;2022-07-31T21:35:47;19.80;99.90
52167;DHT22;38149;52.666;6.428;2022-07-31T21:38:13;19.80;99.90
52167;DHT22;38149;52.666;6.428;2022-07-31T21:40:40;19.70;99.90
52167;DHT22;38149;52.666;6.428;2022-07-31T21:43:07;19.80;99.90
52167;DHT22;38149;52.666;6.428;2022-07-31T21:45:33;19.70;99.90
52167;DHT22;38149;52.666;6.428;2022-07-31T21:48:00;19.70;99.90
52167;DHT22;38149;52.666;6.428;2022-07-31T21:50:36;19.70;99.90
52167;DHT22;38149;52.666;6.428;2022-07-31T21:53:03;19.70;99.90
52167;DHT22;38149;52.666;6.428;2022-07-31T21:55:29;19.80;99.90
52167;DHT22;38149;52.666;6.428;2022-07-31T21:57:54;19.70;99.90
52167;DHT22;38149;52.666;6.428;2022-07-31T22:00:20;20.10;99.90
52167;DHT22;38149;52.666;6.428;2022-07-31T22:05:13;19.50;99.90
52167;DHT22;38149;52.666;6.428;2022-07-31T22:07:57;19.70;99.90
52167;DHT22;38149;52.666;6.428;2022-07-31T22:10:23;19.50;99.90
52167;DHT22;38149;52.666;6.428;2022-07-31T22:12:50;19.80;99.90
52167;DHT22;38149;52.666;6.428;2022-07-31T22:15:16;19.70;99.90
52167;DHT22;38149;52.666;6.428;2022-07-31T22:17:42;19.70;99.90
52167;DHT22;38149;52.666;6.428;2022-07-31T22:20:09;19.70;99.90
52167;DHT22;38149;52.666;6.428;2022-07-31T22:22:36;19.70;99.90
52167;DHT22;38149;52.666;6.428;2022-07-31T22:25:03;19.70;99.90
52167;DHT22;38149;52.666;6.428;2022-07-31T22:27:30;19.70;99.90
52167;DHT22;38149;52.666;6.428;2022-07-31T22:30:15;19.70;99.90
52167;DHT22;38149;52.666;6.428;2022-07-31T22:32:41;19.60;99.90
52167;DHT22;38149;52.666;6.428;2022-07-31T22:35:08;19.70;99.90
52167;DHT22;38149;52.666;6.428;2022-07-31T22:37:35;19.70;99.90
52167;DHT22;38149;52.666;6.428;2022-07-31T22:40:05;19.60;99.90
52167;DHT22;38149;52.666;6.428;2022-07-31T22:44:59;19.50;99.90
52167;DHT22;38149;52.666;6.428;2022-07-31T22:47:25;19.60;99.90
52167;DHT22;38149;52.666;6.428;2022-07-31T22:49:52;19.80;99.90
52167;DHT22;38149;52.666;6.428;2022-07-31T22:52:19;19.30;99.90
52167;DHT22;38149;52.666;6.428;2022-07-31T22:54:46;19.10;99.90
52167;DHT22;38149;52.666;6.428;2022-07-31T22:57:13;19.70;99.90
52167;DHT22;38149;52.666;6.428;2022-07-31T22:59:40;19.70;99.90